Time;durP1;ratioP1;P1;durP2;ratioP2;P2;SDS_P1;SDS_P2;PMS_P1;PMS_P2;Temp;Humidity;BMP_temperature;BMP_pressure;BME280_temperature;BME280_humidity;BME280_pressure;Samples;Min_cycle;Max_cycle;Signal;HPM_P1;HPM_P2
2022/11/20 00:01:32;;;;;;;25.75;10.05;;;;;;;;;;6241871;22;20003;-92
2022/11/20 00:03:58;;;;;;;29.35;12.02;;;;;;;;;;6242897;22;20436;-92
2022/11/20 00:06:24;;;;;;;28.35;11.75;;;;;;;;;;6242714;22;20008;-92
2022/11/20 00:08:53;;;;;;;28.67;11.90;;;;;;;;;;6242835;22;20007;-91
2022/11/20 00:11:19;;;;;;;32.60;12.45;;;;;;;;;;6242462;22;20003;-92
2022/11/20 00:13:45;;;;;;;29.85;12.45;;;;;;;;;;6242528;22;20382;-92
2022/11/20 00:16:11;;;;;;;34.03;11.98;;;;;;;;;;6268566;22;20007;-93
2022/11/20 00:18:37;;;;;;;32.85;13.13;;;;;;;;;;6269986;22;20074;-92
2022/11/20 00:21:03;;;;;;;31.92;13.35;;;;;;;;;;6242483;22;20467;-92
2022/11/20 00:23:28;;;;;;;34.15;12.82;;;;;;;;;;6241509;22;20014;-92
2022/11/20 00:25:54;;;;;;;27.90;12.33;;;;;;;;;;6268966;22;20345;-93
2022/11/20 00:28:19;;;;;;;34.13;13.27;;;;;;;;;;6270135;22;20593;-92
2022/11/20 00:30:44;;;;;;;34.20;13.00;;;;;;;;;;6242103;22;20000;-93
2022/11/20 00:33:09;;;;;;;28.53;12.70;;;;;;;;;;6269638;22;20481;-92
2022/11/20 00:35:34;;;;;;;36.92;12.65;;;;;;;;;;6241252;22;20685;-93
2022/11/20 00:38:00;;;;;;;36.80;14.20;;;;;;;;;;6243170;22;20007;-93
2022/11/20 00:40:25;;;;;;;26.92;12.27;;;;;;;;;;6269348;22;20031;-92
2022/11/20 00:42:50;;;;;;;28.52;11.73;;;;;;;;;;6241353;22;20489;-91
2022/11/20 00:45:15;;;;;;;28.65;10.60;;;;;;;;;;6269499;22;20003;-92
2022/11/20 00:47:41;;;;;;;27.07;9.67;;;;;;;;;;6241671;22;20489;-92
2022/11/20 00:50:06;;;;;;;24.45;8.65;;;;;;;;;;6266679;22;20897;-92
2022/11/20 00:52:31;;;;;;;19.35;8.10;;;;;;;;;;6240154;22;20149;-92
2022/11/20 00:54:57;;;;;;;20.88;7.15;;;;;;;;;;6240008;22;20057;-92
2022/11/20 00:57:22;;;;;;;20.70;7.13;;;;;;;;;;6240536;22;20403;-91
2022/11/20 00:59:47;;;;;;;19.23;6.70;;;;;;;;;;6240765;22;20685;-92
2022/11/20 01:02:12;;;;;;;18.00;6.93;;;;;;;;;;6268067;22;20004;-91
2022/11/20 01:04:37;;;;;;;18.20;6.88;;;;;;;;;;6241072;22;20244;-93
2022/11/20 01:07:03;;;;;;;20.83;7.47;;;;;;;;;;6268084;22;20023;-93
2022/11/20 01:09:28;;;;;;;20.30;7.68;;;;;;;;;;6240369;22;20710;-92
2022/11/20 01:11:53;;;;;;;22.50;8.27;;;;;;;;;;6241581;22;20003;-92
2022/11/20 01:14:19;;;;;;;23.38;9.30;;;;;;;;;;6242402;22;20291;-92
2022/11/20 01:16:46;;;;;;;23.92;8.63;;;;;;;;;;6242260;22;20000;-92
2022/11/20 01:19:13;;;;;;;22.90;8.73;;;;;;;;;;6240964;22;20049;-91
2022/11/20 01:21:39;;;;;;;20.30;7.93;;;;;;;;;;6241286;22;20011;-92
2022/11/20 01:24:06;;;;;;;22.67;7.57;;;;;;;;;;6269028;22;20004;-92
2022/11/20 01:26:33;;;;;;;22.95;7.82;;;;;;;;;;6240763;22;20405;-92
2022/11/20 01:28:59;;;;;;;26.48;7.97;;;;;;;;;;6268664;22;19995;-92
2022/11/20 01:31:24;;;;;;;16.73;7.55;;;;;;;;;;6241822;22;20376;-92
2022/11/20 01:33:50;;;;;;;19.93;7.50;;;;;;;;;;6240519;22;19999;-92
2022/11/20 01:36:16;;;;;;;24.95;7.72;;;;;;;;;;6241265;22;20267;-92
2022/11/20 01:38:42;;;;;;;19.33;7.28;;;;;;;;;;6269140;22;20002;-92
2022/11/20 01:41:08;;;;;;;25.23;8.13;;;;;;;;;;6268062;22;20324;-91
2022/11/20 01:43:34;;;;;;;24.10;8.30;;;;;;;;;;6242038;22;20006;-92
2022/11/20 01:46:13;;;;;;;22.40;8.55;;;;;;;;;;6241651;22;20014;-91
2022/11/20 01:48:42;;;;;;;23.50;9.30;;;;;;;;;;6242316;22;20027;-92
2022/11/20 01:51:13;;;;;;;27.92;8.88;;;;;;;;;;6241247;22;20007;-92
2022/11/20 01:53:38;;;;;;;22.83;9.40;;;;;;;;;;6240706;22;20007;-91
2022/11/20 01:56:07;;;;;;;29.75;9.50;;;;;;;;;;6240943;22;20419;-92
2022/11/20 01:58:34;;;;;;;29.02;9.77;;;;;;;;;;6241930;22;20007;-93
2022/11/20 02:01:00;;;;;;;30.45;9.98;;;;;;;;;;6240587;22;20004;-92
2022/11/20 02:03:25;;;;;;;30.88;9.70;;;;;;;;;;6243996;22;19999;-92
2022/11/20 02:05:53;;;;;;;24.83;9.95;;;;;;;;;;6271456;22;20030;-92
2022/11/20 02:08:19;;;;;;;24.63;9.63;;;;;;;;;;6271632;22;20007;-92
2022/11/20 02:10:45;;;;;;;23.38;9.68;;;;;;;;;;6243064;22;20007;-93
2022/11/20 02:15:54;;;;;;;24.75;8.93;;;;;;;;;;6269897;22;20140;-91
2022/11/20 02:18:20;;;;;;;23.80;9.60;;;;;;;;;;6243245;22;20421;-92
2022/11/20 02:20:47;;;;;;;22.05;8.73;;;;;;;;;;6242688;22;20007;-93
2022/11/20 02:23:15;;;;;;;23.73;9.77;;;;;;;;;;6243797;22;19999;-93
2022/11/20 02:25:42;;;;;;;23.48;8.88;;;;;;;;;;6242186;22;19995;-93
2022/11/20 02:28:08;;;;;;;24.65;9.20;;;;;;;;;;6244456;22;20015;-91
2022/11/20 02:30:33;;;;;;;23.45;8.73;;;;;;;;;;6270664;22;20770;-94
2022/11/20 02:32:58;;;;;;;30.63;9.35;;;;;;;;;;6243415;22;20437;-93
2022/11/20 02:35:24;;;;;;;27.77;10.43;;;;;;;;;;6270222;22;20004;-93
2022/11/20 02:37:54;;;;;;;28.15;9.48;;;;;;;;;;6243880;22;20228;-93
2022/11/20 02:40:20;;;;;;;28.25;9.70;;;;;;;;;;6270422;22;20007;-93
2022/11/20 02:42:45;;;;;;;25.77;9.13;;;;;;;;;;6243510;22;20468;-92
2022/11/20 02:45:10;;;;;;;25.30;9.32;;;;;;;;;;6242172;22;19999;-92
2022/11/20 02:47:36;;;;;;;26.80;10.20;;;;;;;;;;6244104;22;20022;-92
2022/11/20 02:50:01;;;;;;;27.90;9.32;;;;;;;;;;6244286;22;20010;-94
2022/11/20 02:52:26;;;;;;;28.92;10.15;;;;;;;;;;6244082;22;20034;-93
2022/11/20 02:54:52;;;;;;;26.48;9.35;;;;;;;;;;6243241;22;20325;-92
2022/11/20 02:57:17;;;;;;;25.80;9.48;;;;;;;;;;6269726;22;20022;-93
2022/11/20 02:59:42;;;;;;;26.10;9.07;;;;;;;;;;6266128;22;20000;-94
2022/11/20 03:02:08;;;;;;;23.02;8.65;;;;;;;;;;6192634;22;20027;-94
2022/11/20 03:04:33;;;;;;;23.20;8.68;;;;;;;;;;6280962;22;20076;-94
2022/11/20 03:06:58;;;;;;;25.38;8.80;;;;;;;;;;6296025;22;20415;-95
2022/11/20 03:09:23;;;;;;;24.40;8.25;;;;;;;;;;6274064;22;20046;-94
2022/11/20 03:11:49;;;;;;;19.40;7.87;;;;;;;;;;6273961;22;20000;-94
2022/11/20 03:14:15;;;;;;;23.23;8.23;;;;;;;;;;6299884;22;20219;-95
2022/11/20 03:16:40;;;;;;;21.65;7.70;;;;;;;;;;6275416;22;20248;-94
2022/11/20 03:19:05;;;;;;;24.02;7.70;;;;;;;;;;6275369;22;20320;-93
2022/11/20 03:21:32;;;;;;;23.52;6.97;;;;;;;;;;6276375;22;20068;-94
2022/11/20 03:23:57;;;;;;;19.45;6.53;;;;;;;;;;6277068;22;19998;-96
2022/11/20 03:26:24;;;;;;;21.67;6.67;;;;;;;;;;6280083;22;20085;-95
2022/11/20 03:28:57;;;;;;;17.65;6.80;;;;;;;;;;6283539;22;20251;-95
2022/11/20 03:31:24;;;;;;;26.08;8.13;;;;;;;;;;6306998;22;20019;-96
2022/11/20 03:33:49;;;;;;;19.70;7.07;;;;;;;;;;6279298;22;20008;-96
2022/11/20 03:36:15;;;;;;;20.77;6.88;;;;;;;;;;6278112;22;20684;-96
2022/11/20 03:38:41;;;;;;;22.05;7.15;;;;;;;;;;6276381;22;20018;-95
2022/11/20 03:41:11;;;;;;;22.65;8.15;;;;;;;;;;6275725;22;20078;-95
2022/11/20 03:43:36;;;;;;;27.45;7.78;;;;;;;;;;6275096;22;20309;-94
2022/11/20 03:46:02;;;;;;;29.05;9.10;;;;;;;;;;6274365;22;20010;-95
2022/11/20 03:48:27;;;;;;;23.08;8.30;;;;;;;;;;6273334;22;20878;-94
2022/11/20 03:51:05;;;;;;;26.95;8.98;;;;;;;;;;6302376;22;20121;-94
2022/11/20 03:53:31;;;;;;;21.65;8.73;;;;;;;;;;6274053;22;20003;-95
2022/11/20 03:55:56;;;;;;;21.33;7.80;;;;;;;;;;6273602;22;20017;-95
2022/11/20 03:58:21;;;;;;;27.80;8.43;;;;;;;;;;6279694;22;20002;-92
2022/11/20 04:00:48;;;;;;;20.67;8.57;;;;;;;;;;6305296;22;20044;-95
2022/11/20 04:03:13;;;;;;;26.95;9.07;;;;;;;;;;6332211;22;20019;-95
2022/11/20 04:05:38;;;;;;;20.45;8.18;;;;;;;;;;6307531;22;20020;-95
2022/11/20 04:08:03;;;;;;;23.43;6.87;;;;;;;;;;6306524;22;20014;-95
2022/11/20 04:10:29;;;;;;;17.80;7.30;;;;;;;;;;6307499;22;20227;-95
2022/11/20 04:12:54;;;;;;;18.63;6.73;;;;;;;;;;6307390;22;20010;-95
2022/11/20 04:15:19;;;;;;;14.85;5.80;;;;;;;;;;6334213;22;20243;-93
2022/11/20 04:17:44;;;;;;;18.30;6.32;;;;;;;;;;6333297;22;20500;-95
2022/11/20 04:20:10;;;;;;;17.88;6.38;;;;;;;;;;6334088;22;20031;-94
2022/11/20 04:22:35;;;;;;;16.90;6.00;;;;;;;;;;6333879;22;19994;-94
2022/11/20 04:25:00;;;;;;;16.20;6.13;;;;;;;;;;6334885;22;20036;-96
2022/11/20 04:27:25;;;;;;;17.37;5.83;;;;;;;;;;6306153;22;20491;-94
2022/11/20 04:29:54;;;;;;;14.73;5.77;;;;;;;;;;6304748;22;20679;-95
2022/11/20 04:32:19;;;;;;;12.68;4.97;;;;;;;;;;6334521;22;20219;-94
2022/11/20 04:34:44;;;;;;;12.57;4.50;;;;;;;;;;6334632;22;19998;-94
2022/11/20 04:37:09;;;;;;;10.90;4.73;;;;;;;;;;6333865;22;20326;-95
2022/11/20 04:39:35;;;;;;;13.00;4.40;;;;;;;;;;6335123;22;20219;-94
2022/11/20 04:44:44;;;;;;;10.90;4.10;;;;;;;;;;6333368;22;20215;-95
2022/11/20 04:47:09;;;;;;;11.93;3.90;;;;;;;;;;6333512;22;20348;-95
2022/11/20 04:49:34;;;;;;;11.63;3.60;;;;;;;;;;6306165;22;20559;-93
2022/11/20 04:51:59;;;;;;;10.82;3.45;;;;;;;;;;6332702;22;20286;-94
2022/11/20 04:54:25;;;;;;;8.57;2.77;;;;;;;;;;6333645;22;20689;-94
2022/11/20 04:56:50;;;;;;;8.90;2.40;;;;;;;;;;6305049;22;20564;-94
2022/11/20 04:59:15;;;;;;;7.00;2.45;;;;;;;;;;6305133;22;20077;-95
2022/11/20 05:01:40;;;;;;;6.82;1.70;;;;;;;;;;6303979;22;20564;-95
2022/11/20 05:04:06;;;;;;;10.68;1.70;;;;;;;;;;6305001;22;20018;-94
2022/11/20 05:06:31;;;;;;;5.32;1.40;;;;;;;;;;6307055;22;20152;-96
2022/11/20 05:08:56;;;;;;;5.93;1.10;;;;;;;;;;6306232;22;20009;-95
2022/11/20 05:11:22;;;;;;;5.50;1.13;;;;;;;;;;6305643;22;20005;-95
2022/11/20 05:13:47;;;;;;;5.65;1.20;;;;;;;;;;6306161;22;20007;-95
2022/11/20 05:16:14;;;;;;;2.97;0.90;;;;;;;;;;6305869;22;20032;-95
2022/11/20 05:18:40;;;;;;;3.03;0.80;;;;;;;;;;6305025;22;20742;-95
2022/11/20 05:21:06;;;;;;;2.85;0.80;;;;;;;;;;6304915;22;19998;-94
2022/11/20 05:23:32;;;;;;;2.70;0.70;;;;;;;;;;6304024;22;19999;-94
2022/11/20 05:25:57;;;;;;;2.38;0.60;;;;;;;;;;6303242;22;20014;-94
2022/11/20 05:28:23;;;;;;;4.15;0.80;;;;;;;;;;6329923;22;20026;-94
2022/11/20 05:30:49;;;;;;;1.95;0.60;;;;;;;;;;6332115;22;20002;-94
2022/11/20 05:33:14;;;;;;;3.50;0.88;;;;;;;;;;6330251;22;20075;-94
2022/11/20 05:35:40;;;;;;;4.03;0.93;;;;;;;;;;6330424;22;20086;-93
2022/11/20 05:38:05;;;;;;;3.10;0.93;;;;;;;;;;6305431;22;19999;-93
2022/11/20 05:40:30;;;;;;;1.63;0.70;;;;;;;;;;6305881;22;19999;-93
2022/11/20 05:42:55;;;;;;;4.05;1.10;;;;;;;;;;6305771;22;19998;-94
2022/11/20 05:45:21;;;;;;;4.47;1.10;;;;;;;;;;6305301;22;20031;-92
2022/11/20 05:47:46;;;;;;;4.85;1.20;;;;;;;;;;6333699;22;20224;-93
2022/11/20 05:50:11;;;;;;;5.03;1.20;;;;;;;;;;6304551;22;20013;-92
2022/11/20 05:52:36;;;;;;;4.75;1.30;;;;;;;;;;6332544;22;20235;-94
2022/11/20 05:55:02;;;;;;;5.18;1.20;;;;;;;;;;6304687;22;20009;-94
2022/11/20 05:57:27;;;;;;;4.05;1.10;;;;;;;;;;6305814;22;20420;-92
2022/11/20 05:59:52;;;;;;;4.30;1.20;;;;;;;;;;6305581;22;20336;-92
2022/11/20 06:02:17;;;;;;;4.20;1.08;;;;;;;;;;6332253;22;20572;-93
2022/11/20 06:04:43;;;;;;;4.65;1.30;;;;;;;;;;6332648;22;20048;-92
2022/11/20 06:07:08;;;;;;;5.68;1.50;;;;;;;;;;6332250;22;20309;-92
2022/11/20 06:09:33;;;;;;;5.72;1.42;;;;;;;;;;6304296;22;20034;-93
2022/11/20 06:11:59;;;;;;;35.90;3.22;;;;;;;;;;6304709;22;19994;-93
2022/11/20 06:14:24;;;;;;;11.13;1.92;;;;;;;;;;6303953;22;20022;-93
2022/11/20 06:16:49;;;;;;;10.93;2.08;;;;;;;;;;6305656;22;20048;-93
2022/11/20 06:19:15;;;;;;;5.13;1.40;;;;;;;;;;6332154;22;20527;-93
2022/11/20 06:21:40;;;;;;;8.68;1.80;;;;;;;;;;6304702;22;20227;-94
2022/11/20 06:24:06;;;;;;;8.02;1.85;;;;;;;;;;6305222;22;20577;-93
2022/11/20 06:26:31;;;;;;;21.15;4.18;;;;;;;;;;6305591;22;20416;-94
2022/11/20 06:28:57;;;;;;;14.40;2.75;;;;;;;;;;6304761;22;20029;-94
2022/11/20 06:31:23;;;;;;;11.63;2.30;;;;;;;;;;6304813;22;20525;-93
2022/11/20 06:33:48;;;;;;;6.72;1.90;;;;;;;;;;6305136;22;20415;-93
2022/11/20 06:36:14;;;;;;;8.32;2.40;;;;;;;;;;6304240;22;19996;-94
2022/11/20 06:38:40;;;;;;;7.47;2.20;;;;;;;;;;6303997;22;20105;-95
2022/11/20 06:41:06;;;;;;;43.35;4.07;;;;;;;;;;6333248;22;20026;-95
2022/11/20 06:43:31;;;;;;;35.92;4.72;;;;;;;;;;6306485;22;20003;-96
2022/11/20 06:45:57;;;;;;;12.63;2.88;;;;;;;;;;6307024;22;20101;-95
2022/11/20 06:48:23;;;;;;;8.27;2.40;;;;;;;;;;6307059;22;20051;-95
2022/11/20 06:50:48;;;;;;;9.27;2.38;;;;;;;;;;6335201;22;20010;-95
2022/11/20 06:53:14;;;;;;;35.67;4.38;;;;;;;;;;6307283;22;20406;-93
2022/11/20 06:55:43;;;;;;;19.35;2.92;;;;;;;;;;6335142;22;19999;-94
2022/11/20 06:58:09;;;;;;;10.00;2.22;;;;;;;;;;6303999;22;20557;-94
2022/11/20 07:00:34;;;;;;;9.52;1.98;;;;;;;;;;6301351;22;20029;-94
2022/11/20 07:03:02;;;;;;;9.77;2.00;;;;;;;;;;6301402;22;20015;-92
2022/11/20 07:05:27;;;;;;;10.75;2.58;;;;;;;;;;6331185;22;20464;-93
2022/11/20 07:07:55;;;;;;;12.23;2.85;;;;;;;;;;6330542;22;20005;-93
2022/11/20 07:10:20;;;;;;;9.32;2.15;;;;;;;;;;6303062;22;20085;-94
2022/11/20 07:12:49;;;;;;;23.02;3.00;;;;;;;;;;6339346;22;19998;-96
2022/11/20 07:15:14;;;;;;;17.63;2.85;;;;;;;;;;6313023;22;19998;-96
2022/11/20 07:17:39;;;;;;;15.77;2.63;;;;;;;;;;6313322;22;19991;-95
2022/11/20 07:20:05;;;;;;;16.45;2.72;;;;;;;;;;6312590;22;20063;-95
2022/11/20 07:22:34;;;;;;;17.60;3.00;;;;;;;;;;6339551;22;20447;-95
2022/11/20 07:24:59;;;;;;;14.80;2.40;;;;;;;;;;6310424;22;20003;-95
2022/11/20 07:27:24;;;;;;;14.30;3.25;;;;;;;;;;6305147;22;20030;-94
2022/11/20 07:29:50;;;;;;;12.27;3.10;;;;;;;;;;6304947;22;20079;-94
2022/11/20 07:32:15;;;;;;;13.30;2.95;;;;;;;;;;6305713;22;19995;-94
2022/11/20 07:34:40;;;;;;;27.35;3.75;;;;;;;;;;6332729;22;20323;-94
2022/11/20 07:37:06;;;;;;;15.63;2.90;;;;;;;;;;6304987;22;20527;-95
2022/11/20 07:39:31;;;;;;;12.98;2.92;;;;;;;;;;6334106;22;20006;-95
2022/11/20 07:41:56;;;;;;;17.50;3.55;;;;;;;;;;6305507;22;20049;-94
2022/11/20 07:44:21;;;;;;;17.73;3.53;;;;;;;;;;6306056;22;20006;-94
2022/11/20 07:46:47;;;;;;;12.90;3.17;;;;;;;;;;6305643;22;20642;-95
2022/11/20 07:49:12;;;;;;;14.88;3.08;;;;;;;;;;6305927;22;20079;-94
2022/11/20 07:51:37;;;;;;;12.97;3.20;;;;;;;;;;6307438;22;20037;-96
2022/11/20 07:54:03;;;;;;;13.35;3.13;;;;;;;;;;6336242;22;20227;-95
2022/11/20 07:56:28;;;;;;;23.60;4.22;;;;;;;;;;6303681;22;20037;-96
2022/11/20 07:58:53;;;;;;;18.10;3.97;;;;;;;;;;6306530;22;19999;-95
2022/11/20 08:01:20;;;;;;;21.63;3.47;;;;;;;;;;6306281;22;20235;-95
2022/11/20 08:03:45;;;;;;;14.98;3.42;;;;;;;;;;6307265;22;20026;-92
2022/11/20 08:06:10;;;;;;;19.55;4.20;;;;;;;;;;6303487;22;20395;-94
2022/11/20 08:08:38;;;;;;;13.50;4.20;;;;;;;;;;6306826;22;20011;-95
2022/11/20 08:16:31;;;;;;;11.45;3.58;;;;;;;;;;6331881;22;20458;-95
2022/11/20 08:18:56;;;;;;;18.67;6.00;;;;;;;;;;6332998;22;20081;-94
2022/11/20 08:21:22;;;;;;;21.38;5.55;;;;;;;;;;6332838;22;20329;-93
2022/11/20 08:23:47;;;;;;;17.58;4.28;;;;;;;;;;6311604;22;20451;-96
2022/11/20 08:26:12;;;;;;;15.15;5.50;;;;;;;;;;6338555;22;19998;-95
2022/11/20 08:28:37;;;;;;;12.02;4.60;;;;;;;;;;6305293;22;19999;-95
2022/11/20 08:31:03;;;;;;;14.02;6.05;;;;;;;;;;6305482;22;20432;-94
2022/11/20 08:33:29;;;;;;;25.40;10.18;;;;;;;;;;6304957;22;20013;-95
2022/11/20 08:35:58;;;;;;;16.55;5.70;;;;;;;;;;6332756;22;20314;-93
2022/11/20 08:38:26;;;;;;;19.02;4.70;;;;;;;;;;6304680;22;20013;-96
2022/11/20 08:43:35;;;;;;;20.55;5.35;;;;;;;;;;6331167;22;20319;-94
2022/11/20 08:46:01;;;;;;;15.25;6.38;;;;;;;;;;6331785;22;20082;-93
2022/11/20 08:48:26;;;;;;;18.50;3.92;;;;;;;;;;6330761;22;20007;-93
2022/11/20 08:50:51;;;;;;;18.10;3.67;;;;;;;;;;6331621;22;20021;-95
2022/11/20 08:53:17;;;;;;;16.30;3.65;;;;;;;;;;6303694;22;19999;-93
2022/11/20 08:55:42;;;;;;;14.60;3.70;;;;;;;;;;6327877;22;20484;-92
2022/11/20 08:58:07;;;;;;;16.20;3.35;;;;;;;;;;6302129;22;20746;-95
2022/11/20 09:00:33;;;;;;;15.07;2.97;;;;;;;;;;6305059;22;20026;-94
2022/11/20 09:03:07;;;;;;;22.40;3.55;;;;;;;;;;6305323;22;20749;-94
2022/11/20 09:05:32;;;;;;;19.98;3.22;;;;;;;;;;6332333;22;20379;-94
2022/11/20 09:07:58;;;;;;;22.13;4.90;;;;;;;;;;6306156;22;20017;-95
2022/11/20 09:10:24;;;;;;;25.50;6.15;;;;;;;;;;6305035;22;20466;-93
2022/11/20 09:12:50;;;;;;;29.38;7.03;;;;;;;;;;6300235;22;20301;-92
2022/11/20 09:15:15;;;;;;;22.05;5.05;;;;;;;;;;6301606;22;20083;-91
2022/11/20 09:17:49;;;;;;;18.13;4.60;;;;;;;;;;6329828;22;20432;-92
2022/11/20 09:20:16;;;;;;;14.77;2.85;;;;;;;;;;6301931;22;20022;-91
2022/11/20 09:23:26;;;;;;;17.60;2.95;;;;;;;;;;6304166;22;20073;-92
2022/11/20 09:25:55;;;;;;;15.45;2.97;;;;;;;;;;6330697;22;20009;-95
2022/11/20 09:28:21;;;;;;;16.42;3.50;;;;;;;;;;6304925;22;19998;-92
2022/11/20 09:30:47;;;;;;;15.88;2.75;;;;;;;;;;6306592;22;20444;-93
2022/11/20 09:33:12;;;;;;;17.35;3.47;;;;;;;;;;6307149;22;20015;-92
2022/11/20 09:35:37;;;;;;;16.10;3.30;;;;;;;;;;6305495;22;20070;-92
2022/11/20 09:38:10;;;;;;;17.00;4.00;;;;;;;;;;6304366;22;20289;-92
2022/11/20 09:40:38;;;;;;;11.40;3.00;;;;;;;;;;6303839;22;20262;-92
2022/11/20 09:43:17;;;;;;;19.20;3.10;;;;;;;;;;6305212;22;20086;-93
2022/11/20 09:46:01;;;;;;;20.27;3.80;;;;;;;;;;6306910;22;20112;-94
2022/11/20 09:48:35;;;;;;;18.30;3.30;;;;;;;;;;6332667;22;19999;-92
2022/11/20 09:51:27;;;;;;;12.82;3.03;;;;;;;;;;6331471;22;20086;-91
2022/11/20 09:53:55;;;;;;;17.60;2.85;;;;;;;;;;6296786;22;20016;-91
2022/11/20 09:56:21;;;;;;;16.52;3.40;;;;;;;;;;6330546;22;20007;-91
2022/11/20 09:58:55;;;;;;;23.52;3.60;;;;;;;;;;6302351;22;20002;-92
2022/11/20 10:01:29;;;;;;;17.13;2.80;;;;;;;;;;6303171;22;20087;-94
2022/11/20 10:03:57;;;;;;;17.02;4.90;;;;;;;;;;6305386;22;20026;-94
2022/11/20 10:06:30;;;;;;;12.35;2.78;;;;;;;;;;6304668;22;20006;-94
2022/11/20 10:09:11;;;;;;;17.15;3.03;;;;;;;;;;6332702;22;20002;-93
2022/11/20 10:11:56;;;;;;;15.52;2.63;;;;;;;;;;6300249;22;20384;-93
2022/11/20 10:14:21;;;;;;;16.73;2.47;;;;;;;;;;6303223;22;20009;-93
2022/11/20 10:17:03;;;;;;;18.10;3.13;;;;;;;;;;6304012;22;19999;-93
2022/11/20 10:19:35;;;;;;;13.98;2.35;;;;;;;;;;6298253;22;20042;-93
2022/11/20 10:22:23;;;;;;;14.60;2.17;;;;;;;;;;6302857;22;20048;-93
2022/11/20 10:25:08;;;;;;;12.30;2.33;;;;;;;;;;6283158;22;20017;-96
2022/11/20 10:27:36;;;;;;;14.55;2.75;;;;;;;;;;6329923;22;19995;-91
2022/11/20 10:30:09;;;;;;;15.05;3.00;;;;;;;;;;6330461;22;20025;-92
2022/11/20 10:32:37;;;;;;;17.27;2.78;;;;;;;;;;6302075;22;20026;-92
2022/11/20 10:35:20;;;;;;;10.77;2.28;;;;;;;;;;6301814;22;20109;-91
2022/11/20 10:37:47;;;;;;;12.90;2.60;;;;;;;;;;6303344;22;20062;-91
2022/11/20 10:40:19;;;;;;;15.40;2.50;;;;;;;;;;6301772;22;20060;-92
2022/11/20 10:42:46;;;;;;;19.35;3.17;;;;;;;;;;6302649;22;20028;-93
2022/11/20 10:45:23;;;;;;;15.27;2.83;;;;;;;;;;6331195;22;20060;-91
2022/11/20 10:47:48;;;;;;;24.00;2.97;;;;;;;;;;6303993;22;20006;-92
2022/11/20 10:50:23;;;;;;;15.55;2.63;;;;;;;;;;6301776;22;20011;-92
2022/11/20 10:52:48;;;;;;;14.23;2.65;;;;;;;;;;6302606;22;20423;-93
2022/11/20 10:55:13;;;;;;;17.27;2.93;;;;;;;;;;6328840;22;19994;-92
2022/11/20 10:57:48;;;;;;;13.13;3.42;;;;;;;;;;6299825;22;20236;-95
2022/11/20 11:00:16;;;;;;;19.10;3.03;;;;;;;;;;6301773;22;19999;-92
2022/11/20 11:02:44;;;;;;;13.68;3.15;;;;;;;;;;6300226;22;20093;-93
2022/11/20 11:05:29;;;;;;;15.02;3.13;;;;;;;;;;6300847;22;20009;-94
2022/11/20 11:07:55;;;;;;;14.20;3.20;;;;;;;;;;6299434;22;20428;-92
2022/11/20 11:10:27;;;;;;;20.88;3.40;;;;;;;;;;6303459;22;20002;-93
2022/11/20 11:12:53;;;;;;;23.08;3.42;;;;;;;;;;6329964;22;20007;-93
2022/11/20 11:15:26;;;;;;;12.77;3.17;;;;;;;;;;6301446;22;20110;-92
2022/11/20 11:17:51;;;;;;;24.50;4.63;;;;;;;;;;6328779;22;19999;-92
2022/11/20 11:20:18;;;;;;;21.48;3.97;;;;;;;;;;6300035;22;20448;-94
2022/11/20 11:22:48;;;;;;;17.88;4.13;;;;;;;;;;6301580;22;20009;-93
2022/11/20 11:25:24;;;;;;;16.83;3.92;;;;;;;;;;6300992;22;20673;-94
2022/11/20 11:27:50;;;;;;;14.73;3.35;;;;;;;;;;6328081;22;20017;-93
2022/11/20 11:30:16;;;;;;;21.92;4.07;;;;;;;;;;6301808;22;20386;-93
2022/11/20 11:32:42;;;;;;;12.98;2.90;;;;;;;;;;6300804;22;20095;-93
2022/11/20 11:35:18;;;;;;;19.25;3.40;;;;;;;;;;6299946;22;20513;-93
2022/11/20 11:37:45;;;;;;;16.77;3.50;;;;;;;;;;6332272;22;20047;-93
2022/11/20 11:40:11;;;;;;;15.52;2.97;;;;;;;;;;6302332;22;20006;-93
2022/11/20 11:42:41;;;;;;;18.55;3.50;;;;;;;;;;6299500;22;20003;-94
2022/11/20 11:45:06;;;;;;;15.35;2.95;;;;;;;;;;6328406;22;20006;-92
2022/11/20 11:47:35;;;;;;;17.40;3.20;;;;;;;;;;6301682;22;20017;-94
2022/11/20 11:50:09;;;;;;;19.75;2.95;;;;;;;;;;6300119;22;20348;-94
2022/11/20 11:52:54;;;;;;;14.65;2.67;;;;;;;;;;6300151;22;20010;-93
2022/11/20 11:55:25;;;;;;;14.95;3.00;;;;;;;;;;6301001;22;20064;-92
2022/11/20 11:58:05;;;;;;;13.90;3.00;;;;;;;;;;6302710;22;20336;-94
2022/11/20 12:00:31;;;;;;;13.40;3.08;;;;;;;;;;6303053;22;20010;-94
2022/11/20 12:03:29;;;;;;;20.95;3.30;;;;;;;;;;6296753;22;20019;-93
2022/11/20 12:05:59;;;;;;;14.10;2.70;;;;;;;;;;6230000;22;20003;-93
2022/11/20 12:08:31;;;;;;;12.70;2.53;;;;;;;;;;6300568;22;20006;-94
2022/11/20 12:10:56;;;;;;;14.30;2.70;;;;;;;;;;6298383;22;20486;-94
2022/11/20 12:13:30;;;;;;;21.98;3.55;;;;;;;;;;6297047;22;20015;-93
2022/11/20 12:15:55;;;;;;;14.90;2.63;;;;;;;;;;6297095;22;20595;-92
2022/11/20 12:18:24;;;;;;;13.35;2.08;;;;;;;;;;6298382;22;20019;-93
2022/11/20 12:21:08;;;;;;;17.65;2.80;;;;;;;;;;6296867;22;19992;-93
2022/11/20 12:23:52;;;;;;;15.50;2.78;;;;;;;;;;6298664;22;20026;-92
2022/11/20 12:26:35;;;;;;;15.23;2.50;;;;;;;;;;6298542;22;20054;-93
2022/11/20 12:29:08;;;;;;;15.50;3.00;;;;;;;;;;6298111;22;20007;-94
2022/11/20 12:31:33;;;;;;;14.90;2.70;;;;;;;;;;6297314;22;20524;-94
2022/11/20 12:34:10;;;;;;;9.60;1.60;;;;;;;;;;6297594;22;20043;-93
2022/11/20 12:36:40;;;;;;;13.63;2.72;;;;;;;;;;6298309;22;20236;-94
2022/11/20 12:39:06;;;;;;;12.85;2.10;;;;;;;;;;6291445;22;20058;-93
2022/11/20 12:47:42;;;;;;;17.35;1.88;;;;;;;;;;6300554;22;20515;-93
2022/11/20 12:50:17;;;;;;;12.52;1.83;;;;;;;;;;6297626;22;20011;-93
2022/11/20 12:52:48;;;;;;;16.50;2.03;;;;;;;;;;6298510;22;19999;-92
2022/11/20 12:55:17;;;;;;;15.43;2.08;;;;;;;;;;6295748;22;20003;-93
2022/11/20 12:57:54;;;;;;;15.93;2.70;;;;;;;;;;6298796;22;19995;-93
2022/11/20 13:00:21;;;;;;;15.80;2.55;;;;;;;;;;6298058;22;20061;-92
2022/11/20 13:02:46;;;;;;;16.30;3.08;;;;;;;;;;6297719;22;20464;-94
2022/11/20 13:05:27;;;;;;;14.13;2.20;;;;;;;;;;6291271;22;20018;-93
2022/11/20 13:07:53;;;;;;;14.30;2.25;;;;;;;;;;6292811;22;19999;-92
2022/11/20 13:10:23;;;;;;;15.32;3.05;;;;;;;;;;6291267;22;20368;-93
2022/11/20 13:12:54;;;;;;;16.52;2.92;;;;;;;;;;6292072;22;20006;-93
2022/11/20 13:15:38;;;;;;;17.48;2.38;;;;;;;;;;6297048;22;20103;-94
2022/11/20 13:18:08;;;;;;;16.60;2.30;;;;;;;;;;6296340;22;20151;-93
2022/11/20 13:20:34;;;;;;;13.77;2.35;;;;;;;;;;6296892;22;20011;-94
2022/11/20 13:22:59;;;;;;;17.15;2.50;;;;;;;;;;6294763;22;20420;-94
2022/11/20 13:25:29;;;;;;;15.32;2.50;;;;;;;;;;6297297;22;20007;-94
2022/11/20 13:27:56;;;;;;;18.88;2.60;;;;;;;;;;6293134;22;20018;-93
2022/11/20 13:30:22;;;;;;;12.82;2.60;;;;;;;;;;6295834;22;20429;-92
2022/11/20 13:32:52;;;;;;;16.63;2.33;;;;;;;;;;6295772;22;20066;-94
2022/11/20 13:35:25;;;;;;;13.82;2.05;;;;;;;;;;6296827;22;20021;-93
2022/11/20 13:37:59;;;;;;;15.47;2.23;;;;;;;;;;6295328;22;20318;-94
2022/11/20 13:40:24;;;;;;;16.75;2.25;;;;;;;;;;6296454;22;20232;-93
2022/11/20 13:42:57;;;;;;;13.45;2.65;;;;;;;;;;6295463;22;20426;-93
2022/11/20 13:45:26;;;;;;;13.70;2.28;;;;;;;;;;6293800;22;20027;-94
2022/11/20 13:47:55;;;;;;;12.25;1.58;;;;;;;;;;6293596;22;20026;-93
2022/11/20 13:50:26;;;;;;;14.52;2.13;;;;;;;;;;6294576;22;20060;-93
2022/11/20 13:53:04;;;;;;;18.88;2.60;;;;;;;;;;6296420;22;20437;-95
2022/11/20 13:55:29;;;;;;;13.05;2.30;;;;;;;;;;6294122;22;20043;-93
2022/11/20 13:57:54;;;;;;;12.68;2.28;;;;;;;;;;6298102;22;20001;-92
2022/11/20 14:00:23;;;;;;;13.23;2.28;;;;;;;;;;6298353;22;20278;-92
2022/11/20 14:03:00;;;;;;;14.98;2.63;;;;;;;;;;6297763;22;20063;-94
2022/11/20 14:05:26;;;;;;;20.88;3.50;;;;;;;;;;6299869;22;20018;-94
2022/11/20 14:07:52;;;;;;;12.68;1.98;;;;;;;;;;6296647;22;20015;-93
2022/11/20 14:10:20;;;;;;;15.52;2.50;;;;;;;;;;6298992;22;20010;-93
2022/11/20 14:12:45;;;;;;;15.43;2.13;;;;;;;;;;6297206;22;20026;-94
2022/11/20 14:15:38;;;;;;;8.77;1.83;;;;;;;;;;6301992;22;20393;-93
2022/11/20 14:18:36;;;;;;;13.52;2.15;;;;;;;;;;6309212;22;20019;-96
2022/11/20 14:21:05;;;;;;;15.40;1.98;;;;;;;;;;6335140;22;20007;-96
2022/11/20 14:23:35;;;;;;;16.33;2.43;;;;;;;;;;6344640;22;20007;-95
2022/11/20 14:26:02;;;;;;;13.35;2.20;;;;;;;;;;6318198;22;20037;-96
2022/11/20 14:28:40;;;;;;;11.82;1.90;;;;;;;;;;6327953;22;20028;-96
2022/11/20 14:31:17;;;;;;;15.43;3.00;;;;;;;;;;6330731;22;20023;-92
2022/11/20 14:33:43;;;;;;;14.18;2.70;;;;;;;;;;6274988;22;20116;-92
2022/11/20 14:36:16;;;;;;;18.35;2.60;;;;;;;;;;6301567;22;20002;-91
2022/11/20 14:38:42;;;;;;;14.68;2.17;;;;;;;;;;6300224;22;20193;-93
2022/11/20 14:41:08;;;;;;;14.90;2.08;;;;;;;;;;6301421;22;20025;-94
2022/11/20 14:43:35;;;;;;;12.52;2.10;;;;;;;;;;6302128;22;20114;-91
2022/11/20 14:46:03;;;;;;;15.30;2.45;;;;;;;;;;6301788;22;20463;-92
2022/11/20 14:48:31;;;;;;;16.05;2.42;;;;;;;;;;6300555;22;20018;-92
2022/11/20 14:50:56;;;;;;;15.85;2.47;;;;;;;;;;6298675;22;20007;-92
2022/11/20 14:53:25;;;;;;;17.00;2.63;;;;;;;;;;6300427;22;20003;-92
2022/11/20 14:56:02;;;;;;;12.32;2.22;;;;;;;;;;6299676;22;20655;-93